createdAt,value
2022-12-17T00:04:44.778Z,31.1
2022-12-17T00:34:46.606Z,32.7
2022-12-17T01:10:48.776Z,27.3
2022-12-17T01:41:50.751Z,26.8
2022-12-17T02:11:52.682Z,27.9
2022-12-17T02:41:54.589Z,28.9
2022-12-17T03:11:56.349Z,28.4
2022-12-17T03:41:58.244Z,27.3
2022-12-17T04:14:00.147Z,28.9
2022-12-17T04:44:02.090Z,27.9
2022-12-17T05:14:03.967Z,27.9
2022-12-17T05:46:05.980Z,29.5
2022-12-17T06:25:08.324Z,29.5
2022-12-17T06:55:10.255Z,30
2022-12-17T07:25:12.247Z,29.5
2022-12-17T07:59:14.271Z,30.6
2022-12-17T08:29:16.172Z,30.6
2022-12-17T09:00:18.088Z,32.2
2022-12-17T09:30:19.960Z,33.2
2022-12-17T10:01:21.960Z,34.9
2022-12-17T10:32:23.943Z,36.5
2022-12-17T11:02:25.696Z,35.9
2022-12-17T11:38:27.927Z,33.8
2022-12-17T12:09:29.986Z,32.7
2022-12-17T12:39:31.793Z,32.2
2022-12-17T13:11:33.757Z,31.6
2022-12-17T13:43:35.753Z,30
2022-12-17T14:13:37.712Z,30
2022-12-17T14:55:40.308Z,26.8
2022-12-17T15:25:42.316Z,26.8
2022-12-17T15:58:44.261Z,25.2
2022-12-17T16:32:46.432Z,23.6
2022-12-17T17:02:52.793Z,23.6
2022-12-17T17:32:54.694Z,24.6
2022-12-17T18:02:56.654Z,26.3
2022-12-17T18:32:58.415Z,26.8
2022-12-17T19:03:00.374Z,26.8
2022-12-17T19:33:02.263Z,28.4
2022-12-17T20:06:04.263Z,27.3
2022-12-17T20:37:06.288Z,25.7
2022-12-17T21:08:08.326Z,25.2
2022-12-17T21:38:10.097Z,26.3
2022-12-17T22:08:12.048Z,25.2
2022-12-17T22:49:14.000Z,23.0
2022-12-17T23:22:16.000Z,21.9
